createdAt,value
2016-11-28T00:00:55.302Z,0
2016-11-28T00:01:55.266Z,0
2016-11-28T00:02:55.247Z,0
2016-11-28T00:03:55.225Z,0
2016-11-28T00:04:55.181Z,0
2016-11-28T00:05:55.176Z,0
2016-11-28T00:06:55.175Z,0
2016-11-28T00:07:55.157Z,0
2016-11-28T00:08:55.123Z,0
2016-11-28T00:09:55.079Z,0
2016-11-28T00:10:55.045Z,0
2016-11-28T00:11:55.047Z,0
2016-11-28T00:12:55.033Z,0
2016-11-28T00:13:55.025Z,0
2016-11-28T00:14:55.016Z,0
2016-11-28T00:15:55.190Z,0
2016-11-28T00:16:54.947Z,0
2016-11-28T00:17:54.929Z,0
2016-11-28T00:18:54.927Z,0
2016-11-28T00:19:54.902Z,0
2016-11-28T00:20:54.850Z,0
2016-11-28T00:21:54.855Z,0
2016-11-28T00:22:54.801Z,0
2016-11-28T00:23:54.783Z,0
2016-11-28T00:24:54.787Z,0
2016-11-28T00:25:54.742Z,0
2016-11-28T00:26:54.723Z,0
2016-11-28T00:27:54.683Z,0
2016-11-28T00:28:54.703Z,0
2016-11-28T00:29:54.661Z,0
2016-11-28T00:30:54.688Z,0
2016-11-28T00:31:54.642Z,0
2016-11-28T00:32:54.631Z,0
2016-11-28T00:33:54.583Z,0
2016-11-28T00:34:54.557Z,0
2016-11-28T00:35:54.570Z,0
2016-11-28T00:36:54.526Z,0
2016-11-28T00:37:54.514Z,0
2016-11-28T00:38:54.507Z,0
2016-11-28T00:39:54.462Z,0
2016-11-28T00:40:54.455Z,0
2016-11-28T00:41:54.420Z,0
2016-11-28T00:42:54.369Z,0
2016-11-28T00:43:54.614Z,0
2016-11-28T00:44:54.368Z,0
2016-11-28T00:45:54.328Z,0
2016-11-28T00:46:54.318Z,0
2016-11-28T00:47:54.296Z,0
2016-11-28T00:48:54.277Z,0
2016-11-28T00:49:54.260Z,0
2016-11-28T00:50:54.211Z,0
2016-11-28T00:51:54.239Z,0
2016-11-28T00:52:54.185Z,0
2016-11-28T00:53:54.168Z,0
2016-11-28T00:54:54.133Z,0
2016-11-28T00:55:54.129Z,0
2016-11-28T00:56:54.098Z,0
2016-11-28T00:57:54.086Z,0
2016-11-28T00:58:54.076Z,0
2016-11-28T00:59:54.033Z,0
2016-11-28T01:00:54.062Z,0
2016-11-28T01:01:54.029Z,0
2016-11-28T01:02:53.969Z,0
2016-11-28T01:03:53.944Z,0
2016-11-28T01:04:53.901Z,0
2016-11-28T01:05:53.909Z,0
2016-11-28T01:06:53.873Z,0
2016-11-28T01:07:54.060Z,0
2016-11-28T01:08:53.863Z,0
2016-11-28T01:09:54.325Z,0
2016-11-28T01:10:54.111Z,0
2016-11-28T01:11:53.808Z,0
2016-11-28T01:12:53.743Z,0
2016-11-28T01:13:53.756Z,0
2016-11-28T01:14:53.703Z,0
2016-11-28T01:15:53.713Z,0
2016-11-28T01:16:53.686Z,0
2016-11-28T01:17:53.655Z,0
2016-11-28T01:18:53.647Z,0
2016-11-28T01:19:53.594Z,0
2016-11-28T01:20:53.592Z,0
2016-11-28T01:21:53.675Z,0
2016-11-28T01:22:53.532Z,0
2016-11-28T01:23:53.535Z,0
2016-11-28T01:24:53.511Z,0
2016-11-28T01:25:53.495Z,0
2016-11-28T01:26:53.505Z,0
2016-11-28T01:27:53.458Z,0
2016-11-28T01:28:53.408Z,0
2016-11-28T01:29:53.394Z,0
2016-11-28T01:30:53.376Z,0
2016-11-28T01:31:53.379Z,0
2016-11-28T01:32:53.339Z,0
2016-11-28T01:33:53.322Z,0
2016-11-28T01:34:53.286Z,0
2016-11-28T01:35:53.269Z,0
2016-11-28T01:36:53.450Z,0
2016-11-28T01:37:53.225Z,0
2016-11-28T01:38:53.244Z,0
2016-11-28T01:39:53.226Z,0
2016-11-28T01:40:53.174Z,0
2016-11-28T01:41:53.173Z,0
2016-11-28T01:42:53.496Z,0
2016-11-28T01:43:53.101Z,0
2016-11-28T01:44:53.100Z,0
2016-11-28T01:45:53.071Z,0
2016-11-28T01:46:53.086Z,0
2016-11-28T01:47:53.041Z,0
2016-11-28T01:48:53.013Z,0
2016-11-28T01:49:52.969Z,0
2016-11-28T01:50:52.964Z,0
2016-11-28T01:51:52.930Z,0
2016-11-28T01:52:52.918Z,0
2016-11-28T01:53:52.896Z,0
2016-11-28T01:54:52.905Z,0
2016-11-28T01:55:52.880Z,0
2016-11-28T01:56:52.852Z,0
2016-11-28T01:57:52.815Z,0
2016-11-28T01:58:52.791Z,0
2016-11-28T01:59:52.763Z,0
2016-11-28T02:00:52.753Z,0
2016-11-28T02:01:52.787Z,0
2016-11-28T02:02:52.704Z,0
2016-11-28T02:03:52.872Z,0
2016-11-28T02:04:52.674Z,0
2016-11-28T02:05:52.656Z,0
2016-11-28T02:06:52.655Z,0
2016-11-28T02:07:52.597Z,0
2016-11-28T02:08:52.596Z,0
2016-11-28T02:09:52.555Z,0
2016-11-28T02:10:52.560Z,0
2016-11-28T02:11:52.527Z,0
2016-11-28T02:12:52.502Z,0
2016-11-28T02:13:52.488Z,0
2016-11-28T02:14:52.461Z,0
2016-11-28T02:15:52.426Z,0
2016-11-28T02:16:52.421Z,0
2016-11-28T02:17:52.430Z,0
2016-11-28T02:18:52.380Z,0
2016-11-28T02:19:52.365Z,0
2016-11-28T02:20:52.324Z,0
2016-11-28T02:21:52.299Z,0
2016-11-28T02:22:52.325Z,0
2016-11-28T02:23:52.276Z,0
2016-11-28T02:24:52.267Z,0
2016-11-28T02:25:52.223Z,0
2016-11-28T02:26:52.239Z,0
2016-11-28T02:27:52.187Z,0
2016-11-28T02:28:52.200Z,0
2016-11-28T02:29:52.123Z,0
2016-11-28T02:30:52.314Z,0
2016-11-28T02:31:52.094Z,0
2016-11-28T02:32:52.074Z,0
2016-11-28T02:33:52.054Z,0
2016-11-28T02:34:52.042Z,0
2016-11-28T02:35:51.995Z,0
2016-11-28T02:36:51.998Z,0
2016-11-28T02:37:51.953Z,0
2016-11-28T02:38:51.969Z,0
2016-11-28T02:39:51.936Z,0
2016-11-28T02:40:51.872Z,0
2016-11-28T02:41:51.857Z,0
2016-11-28T02:42:51.862Z,0
2016-11-28T02:43:51.874Z,0
2016-11-28T02:44:51.824Z,0
2016-11-28T02:45:52.090Z,0
2016-11-28T02:46:51.795Z,0
2016-11-28T02:47:51.757Z,0
2016-11-28T02:48:51.712Z,0
2016-11-28T02:49:51.712Z,0
2016-11-28T02:50:51.698Z,0
2016-11-28T02:51:51.668Z,0
2016-11-28T02:52:51.638Z,0
2016-11-28T02:53:51.592Z,0
2016-11-28T02:54:51.627Z,0
2016-11-28T02:55:51.575Z,0
2016-11-28T02:56:51.557Z,0
2016-11-28T02:57:51.538Z,0
2016-11-28T02:58:51.495Z,0
2016-11-28T02:59:51.496Z,0
2016-11-28T03:00:51.470Z,0
2016-11-28T03:01:51.461Z,0
2016-11-28T03:02:51.435Z,0
2016-11-28T03:03:51.400Z,0
2016-11-28T03:04:51.401Z,0
2016-11-28T03:05:51.347Z,0
2016-11-28T03:06:51.344Z,0
2016-11-28T03:07:51.307Z,0
2016-11-28T03:08:51.278Z,0
2016-11-28T03:09:51.258Z,0
2016-11-28T03:10:51.238Z,0
2016-11-28T03:11:51.245Z,0
2016-11-28T03:12:51.529Z,0
2016-11-28T03:13:51.192Z,0
2016-11-28T03:14:51.175Z,0
2016-11-28T03:15:51.162Z,0
2016-11-28T03:16:51.114Z,0
2016-11-28T03:17:51.098Z,0
2016-11-28T03:18:51.041Z,0
2016-11-28T03:19:51.072Z,0
2016-11-28T03:20:51.013Z,0
2016-11-28T03:21:51.011Z,0
2016-11-28T03:22:50.988Z,0
2016-11-28T03:23:50.948Z,0
2016-11-28T03:24:50.941Z,0
2016-11-28T03:25:50.968Z,0
2016-11-28T03:26:50.908Z,0
2016-11-28T03:27:50.901Z,0
2016-11-28T03:28:50.891Z,0
2016-11-28T03:29:50.848Z,0
2016-11-28T03:30:50.784Z,0
2016-11-28T03:31:50.804Z,0
2016-11-28T03:32:50.818Z,0
2016-11-28T03:33:50.775Z,0
2016-11-28T03:34:50.738Z,0
2016-11-28T03:35:50.712Z,0
2016-11-28T03:36:50.668Z,0
2016-11-28T03:37:50.633Z,0
2016-11-28T03:38:50.660Z,0
2016-11-28T03:39:50.637Z,0
2016-11-28T03:40:50.596Z,0
2016-11-28T03:41:50.577Z,0
2016-11-28T03:42:50.537Z,0
2016-11-28T03:43:50.861Z,0
2016-11-28T03:44:50.510Z,0
2016-11-28T03:45:50.494Z,0
2016-11-28T03:46:50.502Z,0
2016-11-28T03:47:50.430Z,0
2016-11-28T03:48:50.412Z,0
2016-11-28T03:49:50.389Z,0
2016-11-28T03:50:50.388Z,0
2016-11-28T03:51:50.387Z,0
2016-11-28T03:52:50.326Z,0
2016-11-28T03:53:50.303Z,0
2016-11-28T03:54:50.285Z,0
2016-11-28T03:55:50.275Z,0
2016-11-28T03:56:50.233Z,0
2016-11-28T03:57:50.199Z,0
2016-11-28T03:58:50.231Z,0
2016-11-28T03:59:50.185Z,0
2016-11-28T04:00:50.157Z,0
2016-11-28T04:01:50.157Z,0
2016-11-28T04:02:50.121Z,0
2016-11-28T04:03:50.107Z,0
2016-11-28T04:04:50.093Z,0
2016-11-28T04:05:50.060Z,0
2016-11-28T04:06:50.045Z,0
2016-11-28T04:07:50.048Z,0
2016-11-28T04:08:49.999Z,0
2016-11-28T04:09:49.965Z,0
2016-11-28T04:10:49.940Z,0
2016-11-28T04:11:49.907Z,0
2016-11-28T04:12:49.894Z,0
2016-11-28T04:13:49.895Z,0
2016-11-28T04:14:49.883Z,0
2016-11-28T04:15:49.826Z,0
2016-11-28T04:16:49.871Z,0
2016-11-28T04:17:49.806Z,0
2016-11-28T04:18:49.759Z,0
2016-11-28T04:19:49.757Z,0
2016-11-28T04:20:49.737Z,0
2016-11-28T04:21:49.723Z,0
2016-11-28T04:22:49.679Z,0
2016-11-28T04:23:49.649Z,0
2016-11-28T04:24:49.640Z,0
2016-11-28T04:25:49.657Z,0
2016-11-28T04:26:49.599Z,0
2016-11-28T04:27:49.572Z,0
2016-11-28T04:28:49.561Z,0
2016-11-28T04:29:49.512Z,0
2016-11-28T04:30:49.525Z,0
2016-11-28T04:31:49.477Z,0
2016-11-28T04:32:49.461Z,0
2016-11-28T04:33:49.439Z,0
2016-11-28T04:34:49.412Z,0
2016-11-28T04:35:49.431Z,0
2016-11-28T04:36:49.379Z,0
2016-11-28T04:37:49.366Z,0
2016-11-28T04:38:49.334Z,0
2016-11-28T04:39:49.325Z,0
2016-11-28T04:40:49.337Z,0
2016-11-28T04:41:49.293Z,0
2016-11-28T04:42:49.218Z,0
2016-11-28T04:43:49.239Z,0
2016-11-28T04:44:49.246Z,0
2016-11-28T04:45:49.206Z,0
2016-11-28T04:46:49.171Z,0
2016-11-28T04:47:49.149Z,0
2016-11-28T04:48:49.114Z,0
2016-11-28T04:49:49.121Z,0
2016-11-28T04:50:49.063Z,0
2016-11-28T04:51:49.051Z,0
2016-11-28T04:52:49.055Z,0
2016-11-28T04:53:49.040Z,0
2016-11-28T04:54:49.004Z,0
2016-11-28T04:55:48.974Z,0
2016-11-28T04:56:48.938Z,0
2016-11-28T04:57:48.967Z,0
2016-11-28T04:58:48.938Z,0
2016-11-28T04:59:48.877Z,0
2016-11-28T05:00:48.872Z,0
2016-11-28T05:01:48.844Z,0
2016-11-28T05:02:48.803Z,0
2016-11-28T05:03:48.797Z,0
2016-11-28T05:04:48.784Z,0
2016-11-28T05:05:48.731Z,0
2016-11-28T05:06:48.743Z,0
2016-11-28T05:07:48.682Z,0
2016-11-28T05:08:48.977Z,0
2016-11-28T05:09:48.634Z,0
2016-11-28T05:10:48.640Z,0
2016-11-28T05:11:48.621Z,0
2016-11-28T05:12:48.580Z,0
2016-11-28T05:13:48.573Z,0
2016-11-28T05:14:48.532Z,0
2016-11-28T05:15:48.533Z,0
2016-11-28T05:16:48.512Z,0
2016-11-28T05:17:48.461Z,0
2016-11-28T05:18:48.422Z,0
2016-11-28T05:19:48.422Z,0
2016-11-28T05:20:48.389Z,0
2016-11-28T05:21:48.404Z,0
2016-11-28T05:22:48.357Z,0
2016-11-28T05:23:48.354Z,0
2016-11-28T05:24:48.627Z,0
2016-11-28T05:25:48.284Z,0
2016-11-28T05:26:48.280Z,0
2016-11-28T05:27:48.235Z,0
2016-11-28T05:28:48.207Z,0
2016-11-28T05:29:48.180Z,0
2016-11-28T05:30:48.184Z,0
2016-11-28T05:31:48.135Z,0
2016-11-28T05:32:48.132Z,0
2016-11-28T05:33:48.110Z,0
2016-11-28T05:34:48.064Z,0
2016-11-28T05:35:48.069Z,0
2016-11-28T05:36:48.024Z,0
2016-11-28T05:37:47.985Z,0
2016-11-28T05:38:47.970Z,0
2016-11-28T05:39:47.930Z,0
2016-11-28T05:40:47.913Z,0
2016-11-28T05:41:47.871Z,0
2016-11-28T05:42:47.870Z,0
2016-11-28T05:43:47.846Z,0
2016-11-28T05:44:47.850Z,0
2016-11-28T05:45:48.112Z,0
2016-11-28T05:46:47.774Z,0
2016-11-28T05:47:47.747Z,0
2016-11-28T05:48:47.720Z,0
2016-11-28T05:49:47.723Z,0
2016-11-28T05:50:47.668Z,0
2016-11-28T05:51:47.673Z,0
2016-11-28T05:52:47.649Z,0
2016-11-28T05:53:47.601Z,0
2016-11-28T05:54:47.577Z,0
2016-11-28T05:55:47.582Z,0
2016-11-28T05:56:47.526Z,0
2016-11-28T05:57:47.532Z,0
2016-11-28T05:58:47.491Z,0
2016-11-28T05:59:47.476Z,0
2016-11-28T06:00:47.445Z,0
2016-11-28T06:01:47.407Z,0
2016-11-28T06:02:47.410Z,0
2016-11-28T06:03:47.352Z,0
2016-11-28T06:04:47.345Z,0
2016-11-28T06:05:47.302Z,0
2016-11-28T06:06:47.311Z,0
2016-11-28T06:07:47.262Z,0
2016-11-28T06:08:47.258Z,0
2016-11-28T06:09:47.204Z,0
2016-11-28T06:10:47.185Z,0
2016-11-28T06:11:47.185Z,0
2016-11-28T06:12:47.177Z,0
2016-11-28T06:13:47.154Z,0
2016-11-28T06:14:47.111Z,0
2016-11-28T06:15:47.091Z,0
2016-11-28T06:16:47.052Z,0
2016-11-28T06:17:47.043Z,0
2016-11-28T06:18:47.022Z,0
2016-11-28T06:19:46.999Z,0
2016-11-28T06:20:46.994Z,0
2016-11-28T06:21:46.918Z,0
2016-11-28T06:22:46.918Z,5
2016-11-28T06:23:47.505Z,5
2016-11-28T06:24:46.860Z,5
2016-11-28T06:25:46.831Z,5
2016-11-28T06:26:46.821Z,5
2016-11-28T06:27:46.797Z,10
2016-11-28T06:28:46.765Z,10
2016-11-28T06:29:46.794Z,10
2016-11-28T06:30:46.733Z,10
2016-11-28T06:31:46.720Z,15
2016-11-28T06:32:46.662Z,15
2016-11-28T06:33:46.647Z,15
2016-11-28T06:34:46.682Z,20
2016-11-28T06:35:46.594Z,20
2016-11-28T06:36:46.569Z,25
2016-11-28T06:37:46.581Z,25
2016-11-28T06:38:46.523Z,30
2016-11-28T06:39:46.499Z,30
2016-11-28T06:40:46.819Z,35
2016-11-28T06:41:46.465Z,35
2016-11-28T06:42:46.441Z,45
2016-11-28T06:43:46.453Z,65
2016-11-28T06:44:46.413Z,85
2016-11-28T06:45:46.390Z,110
2016-11-28T06:46:46.335Z,120
2016-11-28T06:47:46.317Z,130
2016-11-28T06:48:46.285Z,140
2016-11-28T06:49:46.276Z,150
2016-11-28T06:50:46.285Z,160
2016-11-28T06:51:46.224Z,165
2016-11-28T06:52:46.196Z,175
2016-11-28T06:53:46.209Z,180
2016-11-28T06:54:46.159Z,180
2016-11-28T06:55:46.137Z,195
2016-11-28T06:56:46.115Z,210
2016-11-28T06:57:46.097Z,225
2016-11-28T06:58:46.054Z,240
2016-11-28T06:59:46.045Z,245
2016-11-28T07:00:46.027Z,255
2016-11-28T07:01:46.290Z,270
2016-11-28T07:02:46.590Z,285
2016-11-28T07:03:45.930Z,290
2016-11-28T07:04:45.900Z,305
2016-11-28T07:05:45.890Z,315
2016-11-28T07:06:45.855Z,325
2016-11-28T07:07:45.889Z,335
2016-11-28T07:08:45.823Z,350
2016-11-28T07:09:45.818Z,365
2016-11-28T07:10:45.775Z,380
2016-11-28T07:11:45.764Z,395
2016-11-28T07:12:45.746Z,405
2016-11-28T07:13:46.031Z,420
2016-11-28T07:14:46.012Z,435
2016-11-28T07:15:45.714Z,445
2016-11-28T07:16:45.665Z,455
2016-11-28T07:17:45.645Z,470
2016-11-28T07:18:45.590Z,480
2016-11-28T07:19:45.588Z,490
2016-11-28T07:20:45.544Z,505
2016-11-28T07:21:45.569Z,520
2016-11-28T07:22:45.551Z,535
2016-11-28T07:23:45.492Z,545
2016-11-28T07:24:45.507Z,555
2016-11-28T07:25:45.448Z,570
2016-11-28T07:26:45.466Z,580
2016-11-28T07:27:45.418Z,600
2016-11-28T07:28:45.387Z,605
2016-11-28T07:29:45.337Z,615
2016-11-28T07:30:45.346Z,625
2016-11-28T07:31:45.304Z,645
2016-11-28T07:32:45.294Z,650
2016-11-28T07:33:45.282Z,665
2016-11-28T07:34:45.259Z,680
2016-11-28T07:35:45.239Z,690
2016-11-28T07:36:45.211Z,710
2016-11-28T07:37:45.204Z,720
2016-11-28T07:38:45.165Z,740
2016-11-28T07:39:45.469Z,765
2016-11-28T07:40:45.144Z,770
2016-11-28T07:41:45.122Z,780
2016-11-28T07:42:45.079Z,785
2016-11-28T07:43:45.093Z,805
2016-11-28T07:44:45.038Z,820
2016-11-28T07:45:45.031Z,830
2016-11-28T07:46:45.013Z,835
2016-11-28T07:47:45.013Z,845
2016-11-28T07:48:44.960Z,850
2016-11-28T07:49:44.948Z,860
2016-11-28T07:50:44.936Z,870
2016-11-28T07:51:44.923Z,880
2016-11-28T07:52:44.886Z,885
2016-11-28T07:53:44.873Z,900
2016-11-28T07:54:44.840Z,910
2016-11-28T07:55:44.817Z,920
2016-11-28T07:56:44.816Z,940
2016-11-28T07:57:44.799Z,945
2016-11-28T07:58:44.768Z,960
2016-11-28T07:59:44.770Z,970
2016-11-28T08:00:44.726Z,985
2016-11-28T08:01:44.697Z,990
2016-11-28T08:02:44.691Z,1005
2016-11-28T08:03:44.662Z,1015
2016-11-28T08:04:44.628Z,1025
2016-11-28T08:05:44.609Z,1035
2016-11-28T08:06:44.590Z,1045
2016-11-28T08:07:44.628Z,1055
2016-11-28T08:08:44.554Z,1060
2016-11-28T08:09:44.541Z,1065
2016-11-28T08:10:44.494Z,1075
2016-11-28T08:11:44.510Z,1090
2016-11-28T08:12:44.472Z,1100
2016-11-28T08:13:44.443Z,1120
2016-11-28T08:14:44.439Z,1135
2016-11-28T08:15:44.712Z,1150
2016-11-28T08:16:44.384Z,1155
2016-11-28T08:17:44.380Z,1180
2016-11-28T08:18:44.394Z,1230
2016-11-28T08:19:44.629Z,1275
2016-11-28T08:20:44.301Z,1280
2016-11-28T08:21:44.277Z,1255
2016-11-28T08:22:44.264Z,1235
2016-11-28T08:23:44.243Z,1240
2016-11-28T08:24:44.238Z,1245
2016-11-28T08:25:44.229Z,1240
2016-11-28T08:26:44.509Z,1230
2016-11-28T08:27:44.204Z,1240
2016-11-28T08:28:44.141Z,1260
2016-11-28T08:29:44.185Z,1285
2016-11-28T08:30:44.147Z,1325
2016-11-28T08:31:44.124Z,1335
2016-11-28T08:32:44.118Z,1350
2016-11-28T08:33:44.063Z,1340
2016-11-28T08:34:44.074Z,1310
2016-11-28T08:35:44.037Z,1305
2016-11-28T08:36:44.003Z,1305
2016-11-28T08:37:43.997Z,1305
2016-11-28T08:38:43.975Z,1310
2016-11-28T08:39:43.949Z,1315
2016-11-28T08:40:43.929Z,1330
2016-11-28T08:41:43.918Z,1335
2016-11-28T08:42:43.880Z,1320
2016-11-28T08:43:43.878Z,1320
2016-11-28T08:44:43.889Z,1330
2016-11-28T08:45:43.852Z,1330
2016-11-28T08:46:43.830Z,1335
2016-11-28T08:47:43.845Z,1340
2016-11-28T08:48:43.794Z,1360
2016-11-28T08:49:43.804Z,1390
2016-11-28T08:50:43.883Z,1390
2016-11-28T08:51:43.737Z,1400
2016-11-28T08:52:43.746Z,1405
2016-11-28T08:53:43.699Z,1435
2016-11-28T08:54:43.724Z,1425
2016-11-28T08:55:43.702Z,1385
2016-11-28T08:56:43.651Z,1390
2016-11-28T08:57:43.649Z,1395
2016-11-28T08:58:43.624Z,1400
2016-11-28T08:59:43.597Z,1410
2016-11-28T09:00:43.567Z,1410
2016-11-28T09:01:43.559Z,1395
2016-11-28T09:02:43.522Z,1420
2016-11-28T09:03:43.519Z,1420
2016-11-28T09:04:43.500Z,1415
2016-11-28T09:05:43.502Z,1425
2016-11-28T09:06:43.475Z,1440
2016-11-28T09:07:43.490Z,1455
2016-11-28T09:08:43.400Z,1480
2016-11-28T09:09:43.415Z,1490
2016-11-28T09:10:43.395Z,1470
2016-11-28T09:11:43.385Z,1470
2016-11-28T09:12:43.369Z,1520
2016-11-28T09:13:43.364Z,1565
2016-11-28T09:14:43.326Z,1630
2016-11-28T09:15:43.288Z,1670
2016-11-28T09:16:43.310Z,1680
2016-11-28T09:17:43.285Z,1745
2016-11-28T09:18:43.255Z,1805
2016-11-28T09:19:43.227Z,1945
2016-11-28T09:20:43.206Z,2015
2016-11-28T09:21:43.185Z,1815
2016-11-28T09:22:43.193Z,1590
2016-11-28T09:23:43.149Z,1550
2016-11-28T09:24:43.158Z,1515
2016-11-28T09:25:43.105Z,1455
2016-11-28T09:26:43.115Z,1425
2016-11-28T09:27:43.118Z,1470
2016-11-28T09:28:43.093Z,1625
2016-11-28T09:29:43.069Z,1870
2016-11-28T09:30:43.066Z,1890
2016-11-28T09:31:43.002Z,1650
2016-11-28T09:32:43.002Z,1595
2016-11-28T09:33:42.993Z,1645
2016-11-28T09:34:42.955Z,1585
2016-11-28T09:35:42.942Z,1515
2016-11-28T09:36:42.930Z,1520
2016-11-28T09:37:42.951Z,1555
2016-11-28T09:38:43.190Z,1650
2016-11-28T09:39:42.861Z,1735
2016-11-28T09:40:42.866Z,1760
2016-11-28T09:41:42.872Z,1980
2016-11-28T09:42:42.827Z,2160
2016-11-28T09:43:42.807Z,2135
2016-11-28T09:44:42.819Z,1910
2016-11-28T09:45:42.765Z,1665
2016-11-28T09:46:42.773Z,1585
2016-11-28T09:47:42.735Z,1560
2016-11-28T09:48:42.739Z,1565
2016-11-28T09:49:42.722Z,1590
2016-11-28T09:50:42.684Z,1610
2016-11-28T09:51:42.645Z,1710
2016-11-28T09:52:42.657Z,1960
2016-11-28T09:53:42.631Z,2180
2016-11-28T09:54:42.624Z,2110
2016-11-28T09:55:42.595Z,1905
2016-11-28T09:56:42.605Z,1960
2016-11-28T09:57:42.577Z,2105
2016-11-28T09:58:42.874Z,2000
2016-11-28T09:59:42.558Z,1625
2016-11-28T10:00:42.521Z,1445
2016-11-28T10:01:42.492Z,1350
2016-11-28T10:02:42.473Z,1350
2016-11-28T10:03:42.456Z,1405
2016-11-28T10:04:42.418Z,1365
2016-11-28T10:05:42.450Z,1285
2016-11-28T10:06:42.411Z,1245
2016-11-28T10:07:42.394Z,1215
2016-11-28T10:08:42.356Z,1200
2016-11-28T10:09:42.375Z,1225
2016-11-28T10:10:42.332Z,1255
2016-11-28T10:11:42.334Z,1245
2016-11-28T10:12:42.347Z,1270
2016-11-28T10:13:42.273Z,1290
2016-11-28T10:14:42.287Z,1245
2016-11-28T10:15:42.258Z,1285
2016-11-28T10:16:42.231Z,1445
2016-11-28T10:17:42.251Z,1605
2016-11-28T10:18:42.211Z,1825
2016-11-28T10:19:42.229Z,2120
2016-11-28T10:20:42.161Z,2475
2016-11-28T10:21:42.182Z,2460
2016-11-28T10:22:42.164Z,2090
2016-11-28T10:23:42.127Z,1810
2016-11-28T10:24:42.104Z,1660
2016-11-28T10:25:42.094Z,1695
2016-11-28T10:26:42.115Z,1675
2016-11-28T10:27:42.085Z,1785
2016-11-28T10:28:42.029Z,1915
2016-11-28T10:29:42.046Z,1975
2016-11-28T10:30:41.988Z,1890
2016-11-28T10:31:41.985Z,1890
2016-11-28T10:32:42.128Z,2025
2016-11-28T10:33:41.983Z,2120
2016-11-28T10:34:41.943Z,1930
2016-11-28T10:35:41.930Z,1695
2016-11-28T10:36:41.918Z,1565
2016-11-28T10:37:41.879Z,1500
2016-11-28T10:38:41.867Z,1640
2016-11-28T10:39:41.904Z,1975
2016-11-28T10:40:41.849Z,1900
2016-11-28T10:41:41.840Z,1690
2016-11-28T10:42:41.845Z,1905
2016-11-28T10:43:41.796Z,2125
2016-11-28T10:44:41.770Z,2060
2016-11-28T10:45:41.744Z,2070
2016-11-28T10:46:41.766Z,2125
2016-11-28T10:47:42.320Z,1950
2016-11-28T10:48:42.002Z,1890
2016-11-28T10:49:41.676Z,2205
2016-11-28T10:50:41.666Z,2235
2016-11-28T10:51:41.664Z,1945
2016-11-28T10:52:41.675Z,1950
2016-11-28T10:53:41.669Z,2090
2016-11-28T10:54:41.599Z,1935
2016-11-28T10:55:41.613Z,1995
2016-11-28T10:56:41.575Z,2080
2016-11-28T10:57:41.558Z,2055
2016-11-28T10:58:41.536Z,2055
2016-11-28T10:59:41.542Z,2015
2016-11-28T11:00:41.845Z,2005
2016-11-28T11:01:41.528Z,2190
2016-11-28T11:02:41.472Z,2250
2016-11-28T11:03:41.474Z,2245
2016-11-28T11:04:41.415Z,2310
2016-11-28T11:05:41.406Z,2145
2016-11-28T11:06:41.408Z,1925
2016-11-28T11:07:41.385Z,1750
2016-11-28T11:08:41.395Z,1835
2016-11-28T11:09:41.369Z,2000
2016-11-28T11:10:41.345Z,2025
2016-11-28T11:11:41.363Z,2025
2016-11-28T11:12:41.305Z,2010
2016-11-28T11:13:41.301Z,1910
2016-11-28T11:14:41.296Z,1995
2016-11-28T11:15:41.276Z,2160
2016-11-28T11:16:41.276Z,2050
2016-11-28T11:17:41.232Z,2005
2016-11-28T11:18:41.684Z,2045
2016-11-28T11:19:41.210Z,2115
2016-11-28T11:20:41.191Z,2225
2016-11-28T11:21:41.198Z,2185
2016-11-28T11:22:41.130Z,2005
2016-11-28T11:23:41.134Z,2095
2016-11-28T11:24:41.106Z,2210
2016-11-28T11:25:41.124Z,2025
2016-11-28T11:26:41.072Z,1875
2016-11-28T11:27:41.057Z,1840
2016-11-28T11:28:41.084Z,2000
2016-11-28T11:29:41.061Z,2065
2016-11-28T11:30:41.016Z,1930
2016-11-28T11:31:41.034Z,1920
2016-11-28T11:32:41.002Z,1895
2016-11-28T11:33:40.991Z,2065
2016-11-28T11:34:40.958Z,2130
2016-11-28T11:35:40.925Z,1915
2016-11-28T11:36:40.938Z,1810
2016-11-28T11:37:40.917Z,1870
2016-11-28T11:38:40.909Z,1900
2016-11-28T11:39:40.890Z,1955
2016-11-28T11:40:40.873Z,1960
2016-11-28T11:41:40.840Z,2010
2016-11-28T11:42:40.834Z,1915
2016-11-28T11:43:40.830Z,1900
2016-11-28T11:44:40.818Z,1945
2016-11-28T11:45:40.774Z,1885
2016-11-28T11:46:40.801Z,1805
2016-11-28T11:47:40.740Z,1805
2016-11-28T11:48:40.723Z,1810
2016-11-28T11:49:40.742Z,1835
2016-11-28T11:50:40.691Z,1785
2016-11-28T11:51:40.708Z,1685
2016-11-28T11:52:40.671Z,1615
2016-11-28T11:53:40.674Z,1595
2016-11-28T11:54:40.650Z,1665
2016-11-28T11:55:40.640Z,1585
2016-11-28T11:56:40.636Z,1505
2016-11-28T11:57:40.601Z,1545
2016-11-28T11:58:40.563Z,1660
2016-11-28T11:59:40.582Z,1835
2016-11-28T12:00:40.565Z,1810
2016-11-28T12:01:40.548Z,1635
2016-11-28T12:02:40.537Z,1615
2016-11-28T12:03:40.471Z,1675
2016-11-28T12:04:40.484Z,1770
2016-11-28T12:05:40.454Z,1885
2016-11-28T12:06:40.445Z,1790
2016-11-28T12:07:40.441Z,1640
2016-11-28T12:08:40.438Z,1595
2016-11-28T12:09:40.392Z,1595
2016-11-28T12:10:40.390Z,1685
2016-11-28T12:11:40.383Z,1685
2016-11-28T12:12:40.359Z,1570
2016-11-28T12:13:40.354Z,1610
2016-11-28T12:14:40.318Z,1690
2016-11-28T12:15:40.310Z,1715
2016-11-28T12:16:40.298Z,1685
2016-11-28T12:17:40.248Z,1585
2016-11-28T12:18:40.226Z,1530
2016-11-28T12:19:40.421Z,1625
2016-11-28T12:20:40.206Z,1760
2016-11-28T12:21:40.194Z,1620
2016-11-28T12:22:40.196Z,1595
2016-11-28T12:23:40.457Z,1725
2016-11-28T12:24:40.149Z,1700
2016-11-28T12:25:40.119Z,1675
2016-11-28T12:26:40.110Z,1810
2016-11-28T12:27:40.121Z,1975
2016-11-28T12:28:40.056Z,1930
2016-11-28T12:29:40.030Z,1815
2016-11-28T12:30:40.237Z,1950
2016-11-28T12:31:40.022Z,1850
2016-11-28T12:32:39.992Z,1790
2016-11-28T12:33:39.943Z,1940
2016-11-28T12:34:39.956Z,1995
2016-11-28T12:35:39.947Z,1855
2016-11-28T12:36:39.921Z,1815
2016-11-28T12:37:39.883Z,1765
2016-11-28T12:38:39.876Z,1690
2016-11-28T12:39:39.876Z,1680
2016-11-28T12:40:39.837Z,1715
2016-11-28T12:41:39.835Z,1555
2016-11-28T12:42:40.008Z,1515
2016-11-28T12:43:39.783Z,1620
2016-11-28T12:44:39.775Z,1680
2016-11-28T12:46:00.994Z,1590
2016-11-28T12:47:00.983Z,1430
2016-11-28T12:48:00.957Z,1440
2016-11-28T12:49:00.928Z,1465
2016-11-28T12:50:00.915Z,1525
2016-11-28T12:51:01.239Z,1620
2016-11-28T12:52:00.905Z,1680
2016-11-28T12:53:01.172Z,1645
2016-11-28T12:54:01.188Z,1465
2016-11-28T12:55:00.837Z,1550
2016-11-28T12:56:00.803Z,1730
2016-11-28T12:57:00.776Z,1660
2016-11-28T12:58:00.780Z,1535
2016-11-28T12:59:00.818Z,1520
2016-11-28T13:00:01.047Z,1530
2016-11-28T13:01:00.727Z,1465
2016-11-28T13:02:00.689Z,1370
2016-11-28T13:03:00.684Z,1315
2016-11-28T13:04:00.661Z,1385
2016-11-28T13:05:00.675Z,1445
2016-11-28T13:06:00.618Z,1415
2016-11-28T13:07:00.615Z,1455
2016-11-28T13:08:00.604Z,1455
2016-11-28T13:09:00.606Z,1475
2016-11-28T13:10:00.551Z,1480
2016-11-28T13:11:00.540Z,1495
2016-11-28T13:12:00.520Z,1545
2016-11-28T13:13:00.486Z,1485
2016-11-28T13:14:00.483Z,1375
2016-11-28T13:15:00.469Z,1380
2016-11-28T13:16:00.455Z,1345
2016-11-28T13:17:01.896Z,1275
2016-11-28T13:18:00.398Z,1305
2016-11-28T13:19:00.675Z,1330
2016-11-28T13:20:00.363Z,1265
2016-11-28T13:21:00.359Z,1200
2016-11-28T13:22:00.331Z,1235
2016-11-28T13:23:00.629Z,1340
2016-11-28T13:24:00.289Z,1300
2016-11-28T13:25:00.285Z,1240
2016-11-28T13:26:00.248Z,1265
2016-11-28T13:27:00.279Z,1225
2016-11-28T13:28:00.226Z,1250
2016-11-28T13:29:00.235Z,1355
2016-11-28T13:30:00.205Z,1380
2016-11-28T13:31:00.237Z,1380
2016-11-28T13:32:00.160Z,1385
2016-11-28T13:33:00.113Z,1405
2016-11-28T13:34:00.140Z,1370
2016-11-28T13:35:00.100Z,1310
2016-11-28T13:36:00.377Z,1260
2016-11-28T13:37:00.065Z,1265
2016-11-28T13:38:00.043Z,1195
2016-11-28T13:39:00.044Z,1090
2016-11-28T13:40:00.021Z,980
2016-11-28T13:40:59.967Z,930
2016-11-28T13:42:00.759Z,930
2016-11-28T13:42:59.970Z,925
2016-11-28T13:43:59.928Z,975
2016-11-28T13:44:59.899Z,1025
2016-11-28T13:45:59.893Z,1125
2016-11-28T13:47:02.083Z,1240
2016-11-28T13:47:59.861Z,1115
2016-11-28T13:48:59.854Z,1005
2016-11-28T13:49:59.795Z,1120
2016-11-28T13:51:04.467Z,1180
2016-11-28T13:51:59.790Z,1220
2016-11-28T13:52:59.780Z,1165
2016-11-28T13:53:59.725Z,1105
2016-11-28T13:54:59.725Z,1135
2016-11-28T13:55:59.697Z,1100
2016-11-28T13:56:59.889Z,1040
2016-11-28T13:57:59.684Z,1050
2016-11-28T13:58:59.654Z,1070
2016-11-28T13:59:59.638Z,865
2016-11-28T14:00:59.613Z,555
2016-11-28T14:01:59.594Z,360